Time;durP1;ratioP1;P1;durP2;ratioP2;P2;SDS_P1;SDS_P2;PMS_P1;PMS_P2;Temp;Humidity;BMP_temperature;BMP_pressure;BME280_temperature;BME280_humidity;BME280_pressure;Samples;Min_cycle;Max_cycle;Signal;HPM_P1;HPM_P2
2022/02/15 00:00:28;;;;;;;8.60;5.60;;;4.40;96.30;;;;;;5034695;28;20176;-83
2022/02/15 00:02:54;;;;;;;9.60;7.43;;;4.30;96.30;;;;;;5017092;28;20172;-82
2022/02/15 00:05:20;;;;;;;7.27;5.70;;;4.30;96.30;;;;;;5016775;28;20172;-82
2022/02/15 00:07:45;;;;;;;8.10;5.77;;;4.30;96.30;;;;;;5016827;28;20414;-83
2022/02/15 00:10:11;;;;;;;8.70;5.37;;;4.30;96.30;;;;;;5016843;28;20814;-83
2022/02/15 00:12:37;;;;;;;11.00;5.83;;;4.30;96.30;;;;;;5034513;28;20203;-83
2022/02/15 00:15:05;;;;;;;7.60;4.83;;;4.30;96.30;;;;;;5034433;28;20242;-83
2022/02/15 00:17:31;;;;;;;6.20;4.60;;;4.60;96.30;;;;;;5016755;28;20938;-83
2022/02/15 00:19:56;;;;;;;8.70;4.37;;;4.70;96.30;;;;;;5016728;28;20454;-82
2022/02/15 00:22:22;;;;;;;9.50;5.03;;;4.90;96.30;;;;;;5016650;28;20200;-83
2022/02/15 00:24:47;;;;;;;8.43;4.70;;;5.00;96.30;;;;;;5016444;28;20226;-83
2022/02/15 00:27:13;;;;;;;8.27;4.83;;;5.10;96.30;;;;;;5016663;28;20176;-82
2022/02/15 00:29:38;;;;;;;11.20;4.70;;;5.20;96.30;;;;;;5016643;28;20180;-82
2022/02/15 00:32:04;;;;;;;6.40;4.83;;;5.20;96.30;;;;;;5034199;28;20748;-83
2022/02/15 00:34:33;;;;;;;10.00;4.77;;;5.20;96.30;;;;;;5016130;28;20184;-83
2022/02/15 00:36:59;;;;;;;8.60;4.30;;;5.20;96.30;;;;;;5013151;28;20423;-83
2022/02/15 00:39:25;;;;;;;11.07;5.20;;;5.10;96.30;;;;;;5033838;28;20458;-82
2022/02/15 00:41:50;;;;;;;10.00;3.97;;;5.10;96.30;;;;;;5016271;28;20439;-83
2022/02/15 00:44:16;;;;;;;8.90;4.37;;;5.10;96.30;;;;;;5016214;28;20175;-83
2022/02/15 00:46:41;;;;;;;7.97;5.17;;;5.10;96.30;;;;;;5033847;28;20255;-82
2022/02/15 00:49:06;;;;;;;8.20;4.57;;;5.10;96.30;;;;;;5016379;28;20176;-83
2022/02/15 00:51:32;;;;;;;5.10;4.40;;;5.10;96.30;;;;;;5015122;28;20693;-82
2022/02/15 00:53:57;;;;;;;7.70;4.83;;;5.10;96.30;;;;;;5016435;28;20176;-83
2022/02/15 00:56:23;;;;;;;7.67;4.93;;;5.20;96.30;;;;;;5016249;28;20581;-83
2022/02/15 00:58:48;;;;;;;12.23;5.40;;;5.20;96.30;;;;;;5016543;28;20200;-83
2022/02/15 05:00:21;;;;;;;3.37;2.73;;;4.30;96.30;;;;;;6022838;23;20436;-81
2022/02/15 05:02:46;;;;;;;4.60;2.43;;;4.30;96.30;;;;;;5017536;28;20442;-77
2022/02/15 05:05:12;;;;;;;3.40;2.90;;;4.30;96.30;;;;;;5018248;28;20542;-78
2022/02/15 05:07:37;;;;;;;4.80;2.33;;;4.30;96.30;;;;;;5033659;28;20184;-78
2022/02/15 05:10:04;;;;;;;7.37;3.30;;;4.30;96.30;;;;;;5032323;28;20203;-76
2022/02/15 05:12:32;;;;;;;6.80;4.30;;;4.20;96.30;;;;;;5033302;28;20871;-80
2022/02/15 05:14:57;;;;;;;7.33;3.73;;;4.20;96.30;;;;;;5033882;28;20930;-79
2022/02/15 05:17:24;;;;;;;3.30;2.40;;;4.20;96.30;;;;;;5041343;28;20421;-78
2022/02/15 05:19:50;;;;;;;5.87;3.70;;;4.10;96.30;;;;;;5034758;28;20200;-78
2022/02/15 06:10:25;;;;;;;7.17;3.00;;;3.80;96.30;;;;;;5548075;22;20573;-82
2022/02/15 06:12:50;;;;;;;7.63;2.83;;;3.80;96.30;;;;;;5015155;28;20514;-82
2022/02/15 06:15:16;;;;;;;6.23;2.90;;;3.70;96.30;;;;;;5032626;28;20168;-82
2022/02/15 06:17:41;;;;;;;7.03;4.10;;;3.70;96.30;;;;;;5036857;28;20654;-80
2022/02/15 06:20:07;;;;;;;5.33;2.97;;;3.70;96.30;;;;;;5015820;28;20239;-82
2022/02/15 06:22:34;;;;;;;5.83;3.00;;;3.80;96.30;;;;;;5032626;28;20253;-81
2022/02/15 06:25:00;;;;;;;4.40;3.13;;;3.80;96.30;;;;;;5028585;28;20425;-81
2022/02/15 06:27:25;;;;;;;7.33;2.77;;;3.80;96.30;;;;;;5035117;28;20406;-81
2022/02/15 06:40:14;;;;;;;4.23;2.60;;;3.90;96.30;;;;;;5234201;23;20494;-80
2022/02/15 06:42:40;;;;;;;3.70;2.43;;;3.90;96.30;;;;;;5033684;28;20422;-81
2022/02/15 06:45:07;;;;;;;4.97;2.50;;;3.90;96.30;;;;;;5049998;28;20409;-81
2022/02/15 06:47:32;;;;;;;3.30;2.80;;;3.90;96.30;;;;;;5036705;28;20402;-80
2022/02/15 06:49:59;;;;;;;4.67;2.90;;;3.90;96.30;;;;;;5039651;28;20429;-81
2022/02/15 06:52:26;;;;;;;6.33;2.50;;;3.90;96.30;;;;;;5040456;28;20175;-81
2022/02/15 06:54:51;;;;;;;4.30;2.63;;;4.00;96.30;;;;;;5038781;28;20402;-75
2022/02/15 06:57:17;;;;;;;3.80;2.70;;;3.90;96.30;;;;;;5042863;28;20422;-77
2022/02/15 06:59:42;;;;;;;4.63;2.63;;;4.00;96.30;;;;;;5014608;28;20216;-75
2022/02/15 07:02:08;;;;;;;8.23;2.63;;;3.90;96.30;;;;;;4998537;28;20169;-76
2022/02/15 07:04:33;;;;;;;8.30;2.80;;;3.90;96.30;;;;;;5015822;28;20200;-76
2022/02/15 07:06:59;;;;;;;7.03;2.17;;;3.90;96.30;;;;;;5042784;28;20211;-79
2022/02/15 07:09:24;;;;;;;3.07;2.47;;;3.90;96.30;;;;;;5041332;28;20683;-79
2022/02/15 07:11:50;;;;;;;12.13;2.80;;;3.90;96.30;;;;;;5030450;28;20172;-79
2022/02/15 07:14:15;;;;;;;4.70;2.77;;;4.00;96.30;;;;;;5043766;28;20176;-79
2022/02/15 07:16:43;;;;;;;4.07;2.17;;;4.10;96.30;;;;;;5039647;28;20675;-79
2022/02/15 07:19:09;;;;;;;7.47;2.90;;;4.20;96.30;;;;;;5021192;28;20195;-79
2022/02/15 07:21:34;;;;;;;3.40;2.97;;;4.30;96.30;;;;;;5031913;28;20469;-79
2022/02/15 07:24:00;;;;;;;3.30;2.80;;;4.40;96.30;;;;;;5017824;28;20179;-79
2022/02/15 07:26:25;;;;;;;3.80;2.50;;;4.50;96.30;;;;;;5047329;28;20168;-79
2022/02/15 07:28:52;;;;;;;7.07;2.67;;;4.60;96.30;;;;;;5048558;28;20288;-79
2022/02/15 07:31:18;;;;;;;5.23;2.80;;;4.80;96.30;;;;;;5046233;28;20199;-79
2022/02/15 07:33:43;;;;;;;4.43;3.00;;;4.90;96.30;;;;;;5035158;28;20477;-79
2022/02/15 07:36:09;;;;;;;8.33;3.17;;;5.10;96.30;;;;;;5032660;28;20965;-79
2022/02/15 07:38:34;;;;;;;4.40;2.70;;;5.20;96.30;;;;;;5016059;28;20232;-79
2022/02/15 07:41:00;;;;;;;4.33;2.87;;;5.30;96.30;;;;;;5035606;28;20193;-79
2022/02/15 07:43:25;;;;;;;3.77;2.63;;;5.30;96.30;;;;;;5038803;28;20694;-77
2022/02/15 07:45:52;;;;;;;4.40;2.27;;;5.40;96.30;;;;;;5016880;28;20176;-78
2022/02/15 07:48:17;;;;;;;2.97;2.07;;;5.40;96.30;;;;;;5034396;28;20186;-78
2022/02/15 07:50:43;;;;;;;7.67;3.10;;;5.50;96.30;;;;;;5017377;28;20431;-78
2022/02/15 07:53:09;;;;;;;3.47;2.33;;;5.50;96.30;;;;;;5017426;28;20701;-77
2022/02/15 07:55:34;;;;;;;3.40;2.60;;;5.50;96.30;;;;;;5034611;28;20164;-78
2022/02/15 07:58:00;;;;;;;4.33;2.50;;;5.50;96.30;;;;;;5035055;28;20179;-78
2022/02/15 08:00:26;;;;;;;4.80;2.67;;;5.60;96.30;;;;;;5034480;28;20230;-78
2022/02/15 08:02:53;;;;;;;9.10;2.53;;;5.70;96.30;;;;;;5017487;28;20204;-78
2022/02/15 08:05:19;;;;;;;6.03;2.50;;;5.80;96.30;;;;;;5034780;28;20407;-78
2022/02/15 08:07:46;;;;;;;3.20;2.47;;;6.00;96.30;;;;;;5037357;28;20414;-79
2022/02/15 08:10:13;;;;;;;5.57;2.60;;;6.10;96.30;;;;;;5021405;28;20431;-79
2022/02/15 08:12:40;;;;;;;5.20;3.23;;;6.30;96.30;;;;;;5037256;28;20422;-80
2022/02/15 08:15:06;;;;;;;3.30;2.30;;;6.40;96.30;;;;;;5018454;28;21025;-79
2022/02/15 08:17:31;;;;;;;4.43;2.67;;;6.50;96.30;;;;;;5037272;28;20447;-81
2022/02/15 08:19:57;;;;;;;4.60;2.80;;;6.60;96.30;;;;;;5019041;28;20266;-79
2022/02/15 08:22:24;;;;;;;4.90;2.67;;;6.70;96.30;;;;;;5017617;28;20180;-80
2022/02/15 08:24:49;;;;;;;6.63;2.60;;;6.70;96.30;;;;;;5017564;28;20173;-80
2022/02/15 08:27:15;;;;;;;6.03;2.90;;;6.90;96.30;;;;;;5035188;28;20411;-80
2022/02/15 08:29:40;;;;;;;5.87;2.97;;;6.90;96.30;;;;;;5034788;28;20192;-79
2022/02/15 08:32:06;;;;;;;6.27;3.13;;;7.10;96.30;;;;;;5017441;28;20226;-80
2022/02/15 08:34:33;;;;;;;4.80;2.40;;;7.20;96.30;;;;;;5034218;28;20238;-80
2022/02/15 08:36:58;;;;;;;4.20;2.83;;;7.40;96.30;;;;;;5034746;28;20174;-80
2022/02/15 08:39:25;;;;;;;6.23;2.87;;;7.50;96.30;;;;;;5034534;28;20466;-79
2022/02/15 08:41:50;;;;;;;4.23;2.67;;;7.40;96.30;;;;;;5015320;28;20218;-79
2022/02/15 08:44:16;;;;;;;7.30;3.20;;;7.40;96.30;;;;;;5013834;28;20858;-79
2022/02/15 08:46:41;;;;;;;5.87;2.60;;;7.50;96.30;;;;;;5025948;28;20185;-80
2022/02/15 08:49:08;;;;;;;6.87;3.00;;;7.50;96.30;;;;;;5000041;28;20169;-80
2022/02/15 08:51:37;;;;;;;5.03;2.40;;;7.30;96.30;;;;;;5000529;28;20178;-80
2022/02/15 08:54:03;;;;;;;5.50;3.23;;;7.30;96.30;;;;;;5017097;28;20396;-80
2022/02/15 08:56:29;;;;;;;5.60;2.90;;;7.40;96.30;;;;;;5017595;28;20415;-80
2022/02/15 08:58:54;;;;;;;3.63;3.20;;;7.40;96.30;;;;;;4999412;28;20600;-81
2022/02/15 09:01:20;;;;;;;6.17;3.43;;;7.50;96.30;;;;;;5017036;28;20424;-80
2022/02/15 09:03:46;;;;;;;4.80;2.97;;;7.40;96.30;;;;;;4999472;28;20157;-81
2022/02/15 09:06:12;;;;;;;4.47;2.63;;;7.40;96.30;;;;;;4998851;28;20605;-80
2022/02/15 09:08:38;;;;;;;6.17;3.20;;;7.30;96.30;;;;;;5016619;28;20466;-80
2022/02/15 09:11:03;;;;;;;4.20;2.90;;;7.10;96.30;;;;;;5016237;28;20935;-79
2022/02/15 09:13:29;;;;;;;4.33;2.70;;;7.30;96.30;;;;;;4997813;28;20191;-80
2022/02/15 09:15:54;;;;;;;7.63;4.43;;;7.10;96.30;;;;;;5016494;28;20180;-80
2022/02/15 09:18:20;;;;;;;3.60;2.73;;;7.20;96.30;;;;;;4998003;28;20180;-80
2022/02/15 09:20:46;;;;;;;5.33;2.50;;;7.30;96.30;;;;;;5016092;28;20195;-79
2022/02/15 09:23:11;;;;;;;3.60;2.43;;;7.40;96.30;;;;;;5015632;28;20574;-80
2022/02/15 09:25:37;;;;;;;4.37;2.63;;;7.40;96.30;;;;;;5015597;28;20223;-80
2022/02/15 09:28:03;;;;;;;3.87;2.33;;;7.30;96.30;;;;;;5016774;28;20175;-80
2022/02/15 09:30:28;;;;;;;4.60;2.70;;;7.50;96.30;;;;;;4999484;28;20239;-80
2022/02/15 09:32:54;;;;;;;5.07;2.43;;;7.50;96.30;;;;;;4999119;28;20284;-80
2022/02/15 09:35:20;;;;;;;6.13;3.33;;;7.60;96.30;;;;;;5001392;28;20208;-80
2022/02/15 09:37:45;;;;;;;8.83;2.73;;;7.50;96.30;;;;;;5035967;28;20184;-80
2022/02/15 09:40:11;;;;;;;5.17;2.70;;;7.40;96.30;;;;;;5018689;28;20470;-79
2022/02/15 09:42:39;;;;;;;5.23;2.93;;;7.40;96.30;;;;;;5018897;28;20184;-80
2022/02/15 09:45:09;;;;;;;7.50;2.83;;;7.70;96.30;;;;;;5018820;28;20271;-79
2022/02/15 09:47:36;;;;;;;4.90;2.67;;;7.90;96.30;;;;;;5020493;28;21145;-81
2022/02/15 09:50:06;;;;;;;5.97;2.90;;;8.10;96.30;;;;;;5020601;28;20446;-81
2022/02/15 09:52:32;;;;;;;6.47;2.53;;;8.20;96.30;;;;;;5037096;28;20423;-81
2022/02/15 09:54:58;;;;;;;5.57;2.80;;;8.50;96.30;;;;;;5015988;28;20494;-81
2022/02/15 09:57:24;;;;;;;5.33;2.60;;;8.60;96.30;;;;;;5015976;28;20183;-80
2022/02/15 09:59:50;;;;;;;4.97;2.80;;;8.70;96.30;;;;;;5046898;28;20265;-81
2022/02/15 10:02:28;;;;;;;6.70;4.20;;;8.50;96.30;;;;;;5037417;28;20410;-82
2022/02/15 10:04:55;;;;;;;2.80;2.33;;;8.40;96.30;;;;;;5056306;28;20420;-81
2022/02/15 10:07:22;;;;;;;7.47;4.10;;;8.20;96.30;;;;;;5038182;28;20460;-81
2022/02/15 10:09:50;;;;;;;4.27;2.30;;;8.20;96.30;;;;;;5056390;28;20444;-81
2022/02/15 10:12:16;;;;;;;4.80;2.20;;;8.40;96.30;;;;;;5035890;28;20509;-79
2022/02/15 10:14:43;;;;;;;4.07;2.30;;;8.30;96.30;;;;;;5017986;28;20852;-81
2022/02/15 10:17:12;;;;;;;4.13;2.20;;;8.30;96.30;;;;;;5018232;28;20229;-81
2022/02/15 10:19:37;;;;;;;5.00;2.00;;;8.10;96.30;;;;;;5017595;28;20466;-81
2022/02/15 10:22:05;;;;;;;4.77;2.40;;;8.00;96.30;;;;;;5016945;28;20418;-81
2022/02/15 10:24:36;;;;;;;6.30;2.23;;;8.20;96.30;;;;;;5016414;28;20172;-80
2022/02/15 10:27:11;;;;;;;3.80;1.90;;;8.10;96.30;;;;;;5034795;28;20395;-81
2022/02/15 10:29:41;;;;;;;3.40;2.30;;;7.80;96.30;;;;;;5040177;28;20548;-80
2022/02/15 10:32:17;;;;;;;2.60;1.73;;;7.80;96.30;;;;;;5034400;28;20425;-81
2022/02/15 10:34:56;;;;;;;7.67;3.40;;;7.90;96.30;;;;;;5034040;28;20399;-81
2022/02/15 10:37:26;;;;;;;4.27;2.67;;;8.10;96.30;;;;;;5034206;28;20407;-81
2022/02/15 10:39:57;;;;;;;7.17;2.10;;;8.50;96.30;;;;;;5016607;28;20557;-81
2022/02/15 10:42:26;;;;;;;6.17;3.00;;;8.60;96.30;;;;;;5016466;28;20834;-80
2022/02/15 10:45:04;;;;;;;4.60;2.50;;;8.50;96.30;;;;;;5034006;28;20403;-80
2022/02/15 10:47:35;;;;;;;3.37;1.90;;;8.20;96.30;;;;;;5033946;28;20415;-81
2022/02/15 10:50:07;;;;;;;5.00;1.97;;;8.00;96.30;;;;;;5016584;28;20466;-80
2022/02/15 10:52:33;;;;;;;5.60;3.37;;;7.70;96.30;;;;;;5015002;28;20427;-82
2022/02/15 10:55:00;;;;;;;7.83;1.77;;;7.80;96.30;;;;;;5015705;28;20407;-79
2022/02/15 10:57:26;;;;;;;5.20;2.13;;;8.00;96.30;;;;;;5016277;28;20964;-80
2022/02/15 10:59:53;;;;;;;2.60;1.60;;;8.80;96.30;;;;;;5015599;28;20462;-80
2022/02/15 11:02:28;;;;;;;8.73;2.07;;;8.80;96.30;;;;;;5016124;28;20948;-80
2022/02/15 11:04:57;;;;;;;5.00;2.17;;;9.40;96.30;;;;;;5035073;28;20406;-80
2022/02/15 11:07:28;;;;;;;3.70;1.87;;;9.90;96.30;;;;;;5034093;28;20441;-82
2022/02/15 11:10:15;;;;;;;2.53;1.70;;;9.20;96.30;;;;;;5015638;28;20445;-82
2022/02/15 11:12:50;;;;;;;2.50;1.70;;;8.90;96.30;;;;;;5015004;28;20435;-81
2022/02/15 11:15:21;;;;;;;3.07;1.30;;;9.30;96.30;;;;;;5031936;28;20410;-81
2022/02/15 11:17:52;;;;;;;1.70;1.10;;;9.50;96.30;;;;;;5016774;28;20430;-81
2022/02/15 11:20:21;;;;;;;4.37;1.80;;;9.60;96.30;;;;;;5014152;28;20462;-82
2022/02/15 11:22:52;;;;;;;3.50;1.70;;;9.40;96.30;;;;;;5014793;28;20461;-82
2022/02/15 11:25:34;;;;;;;4.70;1.57;;;9.30;96.30;;;;;;5014195;28;20411;-81
2022/02/15 11:28:15;;;;;;;2.33;1.70;;;9.10;96.30;;;;;;5037779;28;20403;-82
2022/02/15 11:30:44;;;;;;;6.30;3.40;;;8.90;96.30;;;;;;5030289;28;20446;-82
2022/02/15 11:33:10;;;;;;;5.23;2.40;;;8.80;96.30;;;;;;5015086;28;20477;-81
2022/02/15 11:35:35;;;;;;;4.83;1.83;;;8.80;96.30;;;;;;5015630;28;20419;-82
2022/02/15 11:38:13;;;;;;;4.40;2.80;;;8.40;96.30;;;;;;5018550;28;20207;-81
2022/02/15 11:40:39;;;;;;;3.90;1.70;;;8.50;96.30;;;;;;5051697;28;20215;-82
2022/02/15 11:43:06;;;;;;;4.97;1.90;;;8.70;96.30;;;;;;5057388;28;20441;-81
2022/02/15 11:45:32;;;;;;;4.00;1.57;;;9.00;96.30;;;;;;5038102;28;20924;-82
2022/02/15 11:48:08;;;;;;;3.27;1.53;;;9.50;96.30;;;;;;5037206;28;20540;-82
2022/02/15 11:50:53;;;;;;;5.73;1.83;;;10.10;96.30;;;;;;5055147;28;20452;-81
2022/02/15 11:53:20;;;;;;;3.93;1.43;;;10.50;96.30;;;;;;5037444;28;20445;-81
2022/02/15 11:55:47;;;;;;;6.10;1.90;;;11.30;96.30;;;;;;5037289;28;20497;-81
2022/02/15 11:58:13;;;;;;;3.30;1.40;;;11.90;96.30;;;;;;5037004;28;20437;-81
2022/02/15 12:00:41;;;;;;;1.50;1.20;;;12.30;96.30;;;;;;5054998;28;20469;-82
2022/02/15 12:03:07;;;;;;;3.53;1.53;;;11.70;96.30;;;;;;5038165;28;20413;-81
2022/02/15 12:05:42;;;;;;;4.80;1.73;;;12.00;96.30;;;;;;5038475;28;20491;-81
2022/02/15 12:08:07;;;;;;;2.13;1.30;;;11.10;96.30;;;;;;5056158;28;20443;-80
2022/02/15 12:10:34;;;;;;;3.27;1.30;;;11.30;96.30;;;;;;5038586;28;20813;-81
2022/02/15 12:13:00;;;;;;;3.47;1.30;;;11.70;96.30;;;;;;5038331;28;20182;-80
2022/02/15 12:15:29;;;;;;;2.70;1.10;;;12.10;96.30;;;;;;5039068;28;20418;-80
2022/02/15 12:17:55;;;;;;;5.13;1.80;;;12.20;96.30;;;;;;5039756;28;20179;-80
2022/02/15 12:20:21;;;;;;;4.73;1.30;;;11.70;95.80;;;;;;5038805;28;20462;-80
2022/02/15 12:22:50;;;;;;;2.63;1.00;;;11.60;96.30;;;;;;5038637;28;20816;-80
2022/02/15 12:25:15;;;;;;;3.87;1.30;;;10.80;96.30;;;;;;5037768;28;20418;-81
2022/02/15 12:27:44;;;;;;;2.87;1.00;;;10.60;96.30;;;;;;5056103;28;20497;-80
2022/02/15 13:39:56;;;;;;;2.20;1.30;;;7.80;96.30;;;;;;5030624;28;20852;-79
2022/02/15 13:42:22;;;;;;;3.00;1.13;;;7.80;96.30;;;;;;5031105;28;20408;-78
2022/02/15 13:44:47;;;;;;;3.50;1.30;;;7.80;96.30;;;;;;5031254;28;20346;-78
2022/02/15 13:47:13;;;;;;;2.10;1.10;;;7.80;96.30;;;;;;5032598;28;20175;-78
2022/02/15 13:49:39;;;;;;;1.67;1.07;;;7.90;96.30;;;;;;5030964;28;20679;-77
2022/02/15 13:52:05;;;;;;;2.67;1.17;;;8.00;96.30;;;;;;5031169;28;20176;-79
2022/02/15 13:54:32;;;;;;;3.30;1.37;;;8.10;96.30;;;;;;5032182;28;20403;-79
2022/02/15 13:56:58;;;;;;;1.40;1.10;;;8.00;96.30;;;;;;5032166;28;20453;-77
2022/02/15 13:59:24;;;;;;;2.90;1.20;;;8.00;96.30;;;;;;5031707;28;20455;-77
2022/02/15 14:01:52;;;;;;;2.10;1.10;;;8.00;96.30;;;;;;5031000;28;20548;-79
2022/02/15 14:04:21;;;;;;;3.10;1.30;;;8.10;96.30;;;;;;5030465;28;20176;-77
2022/02/15 14:06:46;;;;;;;5.00;1.50;;;7.90;96.30;;;;;;5031727;28;20918;-81
2022/02/15 14:09:12;;;;;;;2.63;1.03;;;7.80;96.30;;;;;;5033636;28;20415;-81
2022/02/15 14:11:37;;;;;;;5.20;1.20;;;7.80;96.30;;;;;;5032225;28;20204;-82
2022/02/15 14:14:03;;;;;;;2.10;1.27;;;7.70;96.30;;;;;;5031402;28;20178;-82
2022/02/15 14:16:28;;;;;;;3.50;1.70;;;7.70;96.30;;;;;;5033066;28;20180;-81
2022/02/15 14:18:54;;;;;;;2.27;1.10;;;7.60;96.30;;;;;;5031590;28;20298;-80
2022/02/15 14:21:19;;;;;;;2.47;1.20;;;7.50;96.30;;;;;;5031302;28;20237;-81
2022/02/15 14:23:45;;;;;;;3.00;1.60;;;7.40;96.30;;;;;;5031318;28;20539;-82
2022/02/15 14:26:10;;;;;;;3.60;2.23;;;7.30;96.30;;;;;;5031049;28;20326;-81
2022/02/15 14:28:36;;;;;;;4.97;1.00;;;7.30;96.30;;;;;;5030256;28;20644;-80
2022/02/15 14:31:02;;;;;;;1.37;1.10;;;7.20;96.30;;;;;;5031606;28;20204;-78
2022/02/15 14:33:27;;;;;;;1.97;1.10;;;7.30;96.30;;;;;;5030293;28;20187;-79
2022/02/15 14:35:53;;;;;;;1.77;1.10;;;7.30;96.30;;;;;;5031282;28;20423;-78
2022/02/15 14:38:20;;;;;;;1.33;1.03;;;7.30;96.30;;;;;;5031519;28;20698;-79
2022/02/15 14:40:46;;;;;;;3.73;1.60;;;7.20;96.30;;;;;;5030151;28;20212;-79
2022/02/15 14:43:12;;;;;;;1.00;0.80;;;7.30;96.30;;;;;;5031522;28;20491;-78
2022/02/15 14:45:38;;;;;;;2.03;1.40;;;7.40;96.30;;;;;;5030321;28;20172;-79
2022/02/15 14:48:04;;;;;;;1.30;1.00;;;7.40;96.30;;;;;;5032035;28;20757;-79
2022/02/15 14:50:30;;;;;;;4.30;1.10;;;7.50;96.30;;;;;;5033634;28;20222;-80
2022/02/15 14:52:57;;;;;;;4.50;1.37;;;7.60;96.30;;;;;;5033103;28;20887;-79
2022/02/15 14:55:25;;;;;;;3.10;1.40;;;7.60;96.30;;;;;;5032867;28;20414;-80
2022/02/15 14:57:51;;;;;;;3.13;1.40;;;7.60;96.30;;;;;;5031663;28;20498;-79
2022/02/15 15:00:17;;;;;;;4.53;1.43;;;7.70;96.30;;;;;;5031344;28;20470;-80
2022/02/15 15:02:43;;;;;;;2.63;1.20;;;7.70;96.30;;;;;;5031398;28;20925;-80
2022/02/15 15:05:09;;;;;;;1.67;1.43;;;7.60;96.30;;;;;;5032448;28;20403;-79
2022/02/15 15:07:36;;;;;;;3.27;1.50;;;7.60;96.30;;;;;;5031498;28;20180;-80
2022/02/15 15:10:03;;;;;;;1.97;1.30;;;7.50;96.30;;;;;;5033733;28;20210;-80
2022/02/15 15:12:29;;;;;;;1.97;1.40;;;7.30;96.30;;;;;;5036523;28;20410;-80
2022/02/15 15:14:54;;;;;;;1.90;1.50;;;7.30;96.30;;;;;;5034896;28;20419;-80
2022/02/15 15:17:23;;;;;;;2.30;1.43;;;7.30;96.30;;;;;;5035012;28;20275;-80
2022/02/15 15:19:48;;;;;;;1.50;1.30;;;7.30;96.30;;;;;;5036438;28;20204;-80
2022/02/15 15:22:20;;;;;;;2.97;1.47;;;7.40;96.30;;;;;;5036356;28;20422;-80
2022/02/15 15:24:46;;;;;;;2.40;1.53;;;7.40;96.30;;;;;;5036448;28;20169;-80
2022/02/15 15:27:14;;;;;;;12.67;5.30;;;7.30;96.30;;;;;;5037050;28;20436;-79
2022/02/15 15:29:40;;;;;;;4.07;1.50;;;7.10;96.30;;;;;;5036348;28;20525;-80
2022/02/15 15:32:06;;;;;;;2.30;1.70;;;7.10;96.30;;;;;;5037458;28;20423;-80
2022/02/15 15:34:32;;;;;;;1.67;1.43;;;7.00;96.30;;;;;;5035446;28;20778;-80
2022/02/15 15:36:57;;;;;;;7.80;7.10;;;6.80;96.30;;;;;;5036246;28;20423;-80
2022/02/15 15:39:23;;;;;;;43.40;31.60;;;6.80;96.30;;;;;;5037208;28;20214;-80
2022/02/15 15:41:50;;;;;;;8.10;7.40;;;6.80;96.30;;;;;;5036156;28;20267;-80
2022/02/15 15:44:17;;;;;;;5.10;4.60;;;6.80;96.30;;;;;;5037040;28;20176;-80
2022/02/15 15:46:42;;;;;;;6.07;5.47;;;6.80;96.30;;;;;;5036090;28;21010;-80
2022/02/15 15:49:07;;;;;;;31.40;22.70;;;6.70;96.30;;;;;;5036005;28;20454;-80
2022/02/15 15:51:34;;;;;;;26.53;15.03;;;6.60;96.30;;;;;;5035945;28;20176;-80
2022/02/15 15:54:00;;;;;;;28.00;19.10;;;6.60;96.30;;;;;;5036741;28;20686;-79
2022/02/15 15:56:28;;;;;;;12.00;7.50;;;6.50;96.30;;;;;;5036010;28;20411;-80
2022/02/15 15:58:58;;;;;;;31.10;21.97;;;6.40;96.30;;;;;;5037525;28;20211;-80
2022/02/15 16:01:24;;;;;;;32.70;22.67;;;6.30;96.30;;;;;;5041303;28;20435;-79
2022/02/15 16:03:49;;;;;;;41.43;26.07;;;6.30;96.30;;;;;;5043887;28;20425;-79
2022/02/15 16:06:15;;;;;;;36.40;20.90;;;6.30;96.30;;;;;;5041285;28;20419;-80
2022/02/15 16:08:40;;;;;;;22.33;13.23;;;6.20;96.30;;;;;;5038887;28;20254;-80
2022/02/15 16:11:06;;;;;;;6.27;4.10;;;6.20;96.30;;;;;;5036781;28;20557;-80
2022/02/15 16:13:32;;;;;;;208.30;90.30;;;6.10;96.30;;;;;;5035566;28;20176;-80
2022/02/15 16:15:57;;;;;;;41.37;18.53;;;6.00;96.30;;;;;;5035066;28;20180;-79
2022/02/15 16:18:23;;;;;;;50.40;22.20;;;5.90;96.30;;;;;;5034905;28;20606;-79
2022/02/15 16:20:49;;;;;;;20.40;8.37;;;5.80;96.30;;;;;;5032897;28;20212;-80
2022/02/15 16:23:14;;;;;;;130.97;55.37;;;5.80;96.30;;;;;;5034653;28;20215;-80
2022/02/15 16:25:40;;;;;;;28.77;13.50;;;5.80;96.30;;;;;;5032877;28;20644;-80
2022/02/15 16:28:06;;;;;;;10.17;5.33;;;5.70;96.30;;;;;;5033183;28;20223;-80
2022/02/15 16:30:34;;;;;;;17.00;8.73;;;5.60;96.30;;;;;;5033008;28;20691;-80
2022/02/15 16:33:02;;;;;;;97.67;54.13;;;5.60;96.30;;;;;;5033085;28;20470;-80
2022/02/15 16:35:29;;;;;;;21.77;13.70;;;5.50;96.30;;;;;;5034154;28;20431;-79
2022/02/15 16:37:54;;;;;;;28.93;15.57;;;5.50;96.30;;;;;;5032857;28;20499;-80
2022/02/15 16:40:20;;;;;;;3.70;2.80;;;5.50;96.30;;;;;;5032662;28;20550;-80
2022/02/15 16:42:46;;;;;;;13.90;6.80;;;5.50;96.30;;;;;;5032939;28;20176;-80
2022/02/15 16:45:11;;;;;;;18.50;8.80;;;5.50;96.30;;;;;;5033854;28;20180;-80
2022/02/15 16:47:37;;;;;;;11.13;5.27;;;5.50;96.30;;;;;;5032940;28;20215;-80
2022/02/15 16:50:06;;;;;;;19.20;11.30;;;5.40;96.30;;;;;;5032626;28;20219;-80
2022/02/15 16:52:33;;;;;;;3.73;2.47;;;5.40;96.30;;;;;;5032597;28;20263;-80
2022/02/15 16:54:58;;;;;;;3.10;2.63;;;5.40;96.30;;;;;;5032396;28;20460;-80
2022/02/15 16:57:24;;;;;;;3.67;2.60;;;5.40;96.30;;;;;;5033730;28;20411;-80
2022/02/15 16:59:50;;;;;;;5.30;2.60;;;5.40;96.30;;;;;;5033492;28;20215;-80
2022/02/15 17:02:15;;;;;;;3.40;3.07;;;5.40;96.30;;;;;;5032494;28;20176;-80
2022/02/15 17:04:41;;;;;;;4.83;4.03;;;5.40;96.30;;;;;;5033644;28;20691;-80
2022/02/15 17:07:07;;;;;;;15.03;9.17;;;5.40;96.30;;;;;;5032665;28;20690;-80
2022/02/15 17:09:34;;;;;;;7.00;4.80;;;5.30;96.30;;;;;;5032615;28;20250;-80
2022/02/15 17:12:00;;;;;;;7.63;4.90;;;5.30;96.30;;;;;;5033885;28;20429;-80
2022/02/15 17:14:29;;;;;;;3.07;2.40;;;5.20;96.30;;;;;;5031939;28;20419;-79
2022/02/15 17:16:55;;;;;;;7.40;5.73;;;5.20;96.30;;;;;;5033855;28;20419;-80
2022/02/15 17:19:21;;;;;;;6.00;3.83;;;5.20;96.30;;;;;;5032917;28;20545;-79
2022/02/15 17:21:46;;;;;;;9.60;6.03;;;5.20;96.30;;;;;;5031736;28;20172;-80
2022/02/15 17:24:12;;;;;;;20.60;14.00;;;5.20;96.30;;;;;;5030471;28;20212;-79
2022/02/15 17:26:38;;;;;;;10.80;6.13;;;5.20;96.30;;;;;;5030360;28;20275;-80
2022/02/15 17:29:04;;;;;;;5.40;3.60;;;5.30;96.30;;;;;;5029942;28;20522;-79
2022/02/15 17:31:31;;;;;;;17.83;8.63;;;5.20;96.30;;;;;;5030206;28;20196;-80
2022/02/15 17:33:57;;;;;;;20.03;13.10;;;5.20;96.30;;;;;;5030881;28;20168;-80
2022/02/15 17:36:23;;;;;;;15.30;10.93;;;5.20;96.30;;;;;;5031306;28;20763;-80
2022/02/15 17:38:49;;;;;;;8.70;5.90;;;5.10;96.30;;;;;;5032661;28;20435;-79
2022/02/15 17:41:14;;;;;;;11.67;8.57;;;5.10;96.30;;;;;;5032800;28;20203;-80
2022/02/15 17:43:40;;;;;;;9.70;7.63;;;5.00;96.30;;;;;;5033332;28;20184;-75
2022/02/15 17:46:06;;;;;;;14.90;10.87;;;4.90;96.30;;;;;;5034207;28;20234;-80
2022/02/15 17:48:31;;;;;;;9.00;7.10;;;4.80;96.30;;;;;;5032403;28;20525;-80
2022/02/15 17:50:59;;;;;;;27.80;19.23;;;4.60;96.30;;;;;;5032626;28;20192;-80
2022/02/15 17:53:25;;;;;;;38.83;25.00;;;4.60;96.30;;;;;;5032887;28;20609;-81
2022/02/15 17:55:50;;;;;;;11.57;8.80;;;4.60;96.30;;;;;;5033716;28;20472;-80
2022/02/15 17:58:17;;;;;;;17.33;10.70;;;4.60;96.30;;;;;;5032709;28;20230;-81
2022/02/15 18:00:43;;;;;;;16.67;11.83;;;4.60;96.30;;;;;;5032887;28;20722;-80
2022/02/15 18:03:09;;;;;;;10.13;7.17;;;4.60;96.30;;;;;;5033666;28;20419;-80
2022/02/15 18:05:35;;;;;;;20.73;9.87;;;4.60;96.30;;;;;;5034016;28;20489;-80
2022/02/15 18:08:06;;;;;;;42.83;21.43;;;4.60;96.30;;;;;;5032631;28;20176;-81
2022/02/15 18:10:32;;;;;;;23.53;11.67;;;4.50;96.30;;;;;;5034198;28;20434;-79
2022/02/15 18:12:57;;;;;;;20.10;10.80;;;4.50;96.30;;;;;;5032379;28;20932;-80
2022/02/15 18:15:23;;;;;;;32.43;19.73;;;4.40;96.30;;;;;;5032107;28;20176;-81
2022/02/15 18:17:48;;;;;;;39.13;16.33;;;4.40;96.30;;;;;;5033315;28;20551;-80
2022/02/15 18:20:15;;;;;;;15.97;8.23;;;4.30;96.30;;;;;;5033857;28;20334;-79
2022/02/15 18:22:41;;;;;;;37.63;15.27;;;4.30;96.30;;;;;;5031758;28;20534;-81
2022/02/15 18:25:07;;;;;;;11.77;6.50;;;4.40;96.30;;;;;;5031567;28;20429;-82
2022/02/15 18:27:32;;;;;;;11.00;6.73;;;4.40;96.30;;;;;;5034234;28;20535;-81
2022/02/15 18:29:58;;;;;;;24.13;15.33;;;4.40;96.30;;;;;;5032142;28;20294;-80
2022/02/15 18:32:23;;;;;;;5.60;4.20;;;4.50;96.30;;;;;;5031908;28;20184;-80
2022/02/15 18:34:51;;;;;;;22.83;12.87;;;4.50;96.30;;;;;;5030937;28;20172;-80
2022/02/15 18:37:23;;;;;;;20.27;13.50;;;4.30;96.30;;;;;;5015228;28;20224;-80
2022/02/15 18:39:51;;;;;;;86.07;43.27;;;4.20;96.30;;;;;;5012626;28;20471;-80
2022/02/15 18:42:17;;;;;;;32.47;15.00;;;4.10;96.30;;;;;;5013180;28;20443;-80
2022/02/15 18:44:42;;;;;;;24.90;13.33;;;4.20;96.30;;;;;;5013526;28;20452;-80
2022/02/15 18:47:08;;;;;;;10.43;7.90;;;4.10;96.30;;;;;;5024088;28;20183;-80
2022/02/15 18:49:34;;;;;;;8.53;5.17;;;4.00;96.30;;;;;;5035093;28;20196;-80
2022/02/15 18:52:00;;;;;;;12.97;8.17;;;4.00;96.30;;;;;;5036920;28;20247;-80
2022/02/15 18:54:26;;;;;;;3.63;2.33;;;3.90;96.30;;;;;;5035115;28;20172;-81
2022/02/15 18:56:51;;;;;;;5.00;4.40;;;4.00;96.30;;;;;;5037084;28;20421;-80